Decoded Metar for PAGA (GALENA in AK, USA) (IATA:GAL) | Meteo·Mobile Aviation Weather
aviador You're here:

PAGA Decoded Metar

GALENA in AK, USA
Report Time2018-08-21 11:56:00
UTC Time2018-08-21 12:11:01
Flight Rules vfr VFR
Wind340° at 04 kt
W.Decomp.*RWY 25: 1.2 kt HW 3.8 kt RCW
RWY 24: 0.5 kt HW 4.0 kt RCW
W.Rank340° ranks 12
Current wind is below 340° avg. (4.5)
Visibility9999 m
Phenomena:N/A
Clouds:Broken 050 Hf
Overcast 090 Hf
Expected CloudBase > 400 ft AGL from Temp-Dew spread
Ceiling5,000 ft
Temp12°C (ISA -3)
Dew Point11°C (94% RH)
AAT10.9°C
QNH1010 hPa
Density Alt108 ft
Elevation151 ft
Report Wrong Elevation
Raw Report
PAGA 211156Z AUTO 34004KT 10SM BKN050 OVC090 12/11 A2984 RMK AO2
RAE50 SLP106 P0000 60000 70001 T01170111 10150 20117
58015=

Extra information for PAGA:More info

Metar Taf Metar & Taf Last 4 Metars F.Rules Stats Wind Profile Meteogram Temp Stats Airport Information Weather charts Add Link Nearby VenuesMetar ALERT Operation Metar Decoded Social comments

AIRNAV info for PAGA